sensor_id;sensor_type;location;lat;lon;timestamp;P1;durP1;ratioP1;P2;durP2;ratioP2
9409;SDS011;4744;52.576;13.568;2023-09-30T00:02:27;2.13;;;1.23;;
9409;SDS011;4744;52.576;13.568;2023-09-30T00:04:55;1.55;;;1.00;;
9409;SDS011;4744;52.576;13.568;2023-09-30T00:07:22;1.02;;;0.90;;
9409;SDS011;4744;52.576;13.568;2023-09-30T00:09:49;1.13;;;1.00;;
9409;SDS011;4744;52.576;13.568;2023-09-30T00:12:16;1.65;;;1.20;;
9409;SDS011;4744;52.576;13.568;2023-09-30T00:14:45;1.48;;;1.10;;
9409;SDS011;4744;52.576;13.568;2023-09-30T00:17:13;3.50;;;1.30;;
9409;SDS011;4744;52.576;13.568;2023-09-30T00:19:40;2.42;;;1.33;;
9409;SDS011;4744;52.576;13.568;2023-09-30T00:22:07;1.95;;;1.23;;
9409;SDS011;4744;52.576;13.568;2023-09-30T00:24:34;2.63;;;1.65;;
9409;SDS011;4744;52.576;13.568;2023-09-30T00:27:00;3.50;;;1.65;;
9409;SDS011;4744;52.576;13.568;2023-09-30T00:29:27;3.95;;;1.77;;
9409;SDS011;4744;52.576;13.568;2023-09-30T00:31:56;4.13;;;1.80;;
9409;SDS011;4744;52.576;13.568;2023-09-30T00:34:23;2.70;;;1.60;;
9409;SDS011;4744;52.576;13.568;2023-09-30T00:36:49;5.18;;;2.13;;
9409;SDS011;4744;52.576;13.568;2023-09-30T00:39:16;3.65;;;2.00;;
9409;SDS011;4744;52.576;13.568;2023-09-30T00:41:43;5.00;;;2.00;;
9409;SDS011;4744;52.576;13.568;2023-09-30T00:44:10;4.97;;;1.80;;
9409;SDS011;4744;52.576;13.568;2023-09-30T00:46:37;2.78;;;1.95;;
9409;SDS011;4744;52.576;13.568;2023-09-30T00:49:09;6.22;;;1.77;;
9409;SDS011;4744;52.576;13.568;2023-09-30T00:51:39;6.45;;;2.22;;
9409;SDS011;4744;52.576;13.568;2023-09-30T00:54:07;4.95;;;1.92;;
9409;SDS011;4744;52.576;13.568;2023-09-30T00:56:34;4.72;;;2.20;;
9409;SDS011;4744;52.576;13.568;2023-09-30T00:59:04;4.00;;;2.17;;
9409;SDS011;4744;52.576;13.568;2023-09-30T01:01:31;4.75;;;2.00;;
9409;SDS011;4744;52.576;13.568;2023-09-30T01:03:58;5.60;;;2.28;;
9409;SDS011;4744;52.576;13.568;2023-09-30T01:06:28;4.53;;;2.47;;
9409;SDS011;4744;52.576;13.568;2023-09-30T01:08:54;5.90;;;2.47;;
9409;SDS011;4744;52.576;13.568;2023-09-30T01:11:21;6.20;;;2.45;;
9409;SDS011;4744;52.576;13.568;2023-09-30T01:13:48;5.82;;;2.30;;
9409;SDS011;4744;52.576;13.568;2023-09-30T01:16:15;8.90;;;2.70;;
9409;SDS011;4744;52.576;13.568;2023-09-30T01:18:42;5.93;;;2.38;;
9409;SDS011;4744;52.576;13.568;2023-09-30T01:21:10;9.07;;;2.70;;
9409;SDS011;4744;52.576;13.568;2023-09-30T01:23:39;8.43;;;2.95;;
9409;SDS011;4744;52.576;13.568;2023-09-30T01:26:07;4.55;;;2.72;;
9409;SDS011;4744;52.576;13.568;2023-09-30T01:28:36;8.60;;;3.00;;
9409;SDS011;4744;52.576;13.568;2023-09-30T01:31:03;8.07;;;2.55;;
9409;SDS011;4744;52.576;13.568;2023-09-30T01:33:30;5.47;;;2.33;;
9409;SDS011;4744;52.576;13.568;2023-09-30T01:35:58;5.40;;;2.75;;
9409;SDS011;4744;52.576;13.568;2023-09-30T01:38:25;6.07;;;2.95;;
9409;SDS011;4744;52.576;13.568;2023-09-30T01:40:54;8.77;;;3.00;;
9409;SDS011;4744;52.576;13.568;2023-09-30T01:43:21;7.40;;;2.70;;
9409;SDS011;4744;52.576;13.568;2023-09-30T01:45:47;7.72;;;3.30;;
9409;SDS011;4744;52.576;13.568;2023-09-30T01:48:15;6.90;;;2.95;;
9409;SDS011;4744;52.576;13.568;2023-09-30T01:50:41;6.07;;;2.70;;
9409;SDS011;4744;52.576;13.568;2023-09-30T01:53:08;8.85;;;2.70;;
9409;SDS011;4744;52.576;13.568;2023-09-30T01:55:35;5.07;;;2.90;;
9409;SDS011;4744;52.576;13.568;2023-09-30T01:58:04;4.50;;;2.30;;
9409;SDS011;4744;52.576;13.568;2023-09-30T02:00:31;5.20;;;2.55;;
9409;SDS011;4744;52.576;13.568;2023-09-30T02:02:57;4.57;;;2.63;;
9409;SDS011;4744;52.576;13.568;2023-09-30T02:05:25;5.88;;;2.70;;
9409;SDS011;4744;52.576;13.568;2023-09-30T02:07:52;8.32;;;3.03;;
9409;SDS011;4744;52.576;13.568;2023-09-30T02:10:20;5.28;;;2.80;;
9409;SDS011;4744;52.576;13.568;2023-09-30T02:12:47;6.18;;;3.05;;
9409;SDS011;4744;52.576;13.568;2023-09-30T02:15:15;6.07;;;2.40;;
9409;SDS011;4744;52.576;13.568;2023-09-30T02:17:43;4.90;;;3.00;;
9409;SDS011;4744;52.576;13.568;2023-09-30T02:20:11;5.57;;;2.33;;
9409;SDS011;4744;52.576;13.568;2023-09-30T02:22:41;6.55;;;2.88;;
9409;SDS011;4744;52.576;13.568;2023-09-30T02:25:09;4.68;;;2.40;;
9409;SDS011;4744;52.576;13.568;2023-09-30T02:27:37;7.88;;;2.63;;
9409;SDS011;4744;52.576;13.568;2023-09-30T02:30:06;6.28;;;2.75;;
9409;SDS011;4744;52.576;13.568;2023-09-30T02:32:36;6.05;;;2.17;;
9409;SDS011;4744;52.576;13.568;2023-09-30T02:35:04;5.00;;;2.60;;
9409;SDS011;4744;52.576;13.568;2023-09-30T02:37:32;5.32;;;2.42;;
9409;SDS011;4744;52.576;13.568;2023-09-30T02:40:01;6.05;;;3.15;;
9409;SDS011;4744;52.576;13.568;2023-09-30T02:42:30;6.85;;;2.30;;
9409;SDS011;4744;52.576;13.568;2023-09-30T02:44:59;6.80;;;2.78;;
9409;SDS011;4744;52.576;13.568;2023-09-30T02:47:26;5.70;;;2.70;;
9409;SDS011;4744;52.576;13.568;2023-09-30T02:49:56;5.50;;;2.53;;
9409;SDS011;4744;52.576;13.568;2023-09-30T02:52:24;6.15;;;2.53;;
9409;SDS011;4744;52.576;13.568;2023-09-30T02:54:51;7.63;;;2.85;;
9409;SDS011;4744;52.576;13.568;2023-09-30T02:57:18;8.38;;;3.00;;
9409;SDS011;4744;52.576;13.568;2023-09-30T02:59:46;4.38;;;2.83;;
9409;SDS011;4744;52.576;13.568;2023-09-30T03:02:14;7.72;;;2.75;;
9409;SDS011;4744;52.576;13.568;2023-09-30T03:04:43;7.53;;;2.72;;
9409;SDS011;4744;52.576;13.568;2023-09-30T03:07:16;8.00;;;3.10;;
9409;SDS011;4744;52.576;13.568;2023-09-30T03:09:44;6.15;;;3.10;;
9409;SDS011;4744;52.576;13.568;2023-09-30T03:12:12;4.93;;;2.90;;
9409;SDS011;4744;52.576;13.568;2023-09-30T03:14:39;7.50;;;2.90;;
9409;SDS011;4744;52.576;13.568;2023-09-30T03:17:06;6.10;;;2.85;;
9409;SDS011;4744;52.576;13.568;2023-09-30T03:19:36;6.93;;;3.15;;
9409;SDS011;4744;52.576;13.568;2023-09-30T03:22:03;6.00;;;2.72;;
9409;SDS011;4744;52.576;13.568;2023-09-30T03:24:37;5.30;;;2.35;;
9409;SDS011;4744;52.576;13.568;2023-09-30T03:27:04;9.75;;;2.95;;
9409;SDS011;4744;52.576;13.568;2023-09-30T03:29:32;4.93;;;2.30;;
9409;SDS011;4744;52.576;13.568;2023-09-30T03:32:01;8.43;;;2.65;;
9409;SDS011;4744;52.576;13.568;2023-09-30T03:34:30;7.15;;;2.55;;
9409;SDS011;4744;52.576;13.568;2023-09-30T03:36:57;6.97;;;3.00;;
9409;SDS011;4744;52.576;13.568;2023-09-30T03:39:25;6.95;;;2.88;;
9409;SDS011;4744;52.576;13.568;2023-09-30T03:41:54;5.90;;;2.95;;
9409;SDS011;4744;52.576;13.568;2023-09-30T03:44:23;9.82;;;3.13;;
9409;SDS011;4744;52.576;13.568;2023-09-30T03:46:50;9.82;;;3.42;;
9409;SDS011;4744;52.576;13.568;2023-09-30T03:49:17;7.43;;;3.15;;
9409;SDS011;4744;52.576;13.568;2023-09-30T03:51:45;7.35;;;3.15;;
9409;SDS011;4744;52.576;13.568;2023-09-30T03:54:12;10.85;;;3.30;;
9409;SDS011;4744;52.576;13.568;2023-09-30T03:56:38;6.47;;;3.20;;
9409;SDS011;4744;52.576;13.568;2023-09-30T03:59:07;8.48;;;3.28;;
9409;SDS011;4744;52.576;13.568;2023-09-30T04:01:34;7.53;;;3.20;;
9409;SDS011;4744;52.576;13.568;2023-09-30T04:04:05;9.18;;;3.63;;
9409;SDS011;4744;52.576;13.568;2023-09-30T04:06:34;8.50;;;2.90;;
9409;SDS011;4744;52.576;13.568;2023-09-30T04:09:03;4.57;;;2.67;;
9409;SDS011;4744;52.576;13.568;2023-09-30T04:11:34;9.98;;;3.00;;
9409;SDS011;4744;52.576;13.568;2023-09-30T04:14:02;8.23;;;3.28;;
9409;SDS011;4744;52.576;13.568;2023-09-30T04:16:31;6.78;;;2.95;;
9409;SDS011;4744;52.576;13.568;2023-09-30T04:18:58;5.85;;;3.08;;
9409;SDS011;4744;52.576;13.568;2023-09-30T04:21:25;12.45;;;3.22;;
9409;SDS011;4744;52.576;13.568;2023-09-30T04:23:53;12.35;;;3.47;;
9409;SDS011;4744;52.576;13.568;2023-09-30T04:26:21;9.48;;;3.47;;
9409;SDS011;4744;52.576;13.568;2023-09-30T04:28:48;7.45;;;3.25;;
9409;SDS011;4744;52.576;13.568;2023-09-30T04:31:15;7.20;;;3.03;;
9409;SDS011;4744;52.576;13.568;2023-09-30T04:33:44;9.70;;;3.10;;
9409;SDS011;4744;52.576;13.568;2023-09-30T04:36:12;6.95;;;3.28;;
9409;SDS011;4744;52.576;13.568;2023-09-30T04:38:39;8.77;;;3.53;;
9409;SDS011;4744;52.576;13.568;2023-09-30T04:41:06;10.10;;;2.97;;
9409;SDS011;4744;52.576;13.568;2023-09-30T04:43:33;5.72;;;3.10;;
9409;SDS011;4744;52.576;13.568;2023-09-30T04:46:03;8.45;;;3.30;;
9409;SDS011;4744;52.576;13.568;2023-09-30T04:48:32;7.13;;;3.35;;
9409;SDS011;4744;52.576;13.568;2023-09-30T04:51:00;7.88;;;3.25;;
9409;SDS011;4744;52.576;13.568;2023-09-30T04:53:29;7.38;;;3.13;;
9409;SDS011;4744;52.576;13.568;2023-09-30T04:55:58;9.07;;;2.95;;
9409;SDS011;4744;52.576;13.568;2023-09-30T04:58:26;7.50;;;2.83;;
9409;SDS011;4744;52.576;13.568;2023-09-30T05:00:54;6.15;;;2.85;;
9409;SDS011;4744;52.576;13.568;2023-09-30T05:03:21;8.60;;;3.17;;
9409;SDS011;4744;52.576;13.568;2023-09-30T05:05:49;8.35;;;3.00;;
9409;SDS011;4744;52.576;13.568;2023-09-30T05:08:19;7.50;;;3.30;;
9409;SDS011;4744;52.576;13.568;2023-09-30T05:10:46;9.93;;;3.55;;
9409;SDS011;4744;52.576;13.568;2023-09-30T05:13:13;7.65;;;2.92;;
9409;SDS011;4744;52.576;13.568;2023-09-30T05:15:40;6.57;;;3.05;;
9409;SDS011;4744;52.576;13.568;2023-09-30T05:18:07;7.00;;;3.45;;
9409;SDS011;4744;52.576;13.568;2023-09-30T05:20:34;12.50;;;3.35;;
9409;SDS011;4744;52.576;13.568;2023-09-30T05:23:03;8.15;;;3.13;;
9409;SDS011;4744;52.576;13.568;2023-09-30T05:25:33;7.38;;;3.03;;
9409;SDS011;4744;52.576;13.568;2023-09-30T05:28:00;5.07;;;3.08;;
9409;SDS011;4744;52.576;13.568;2023-09-30T05:30:29;10.65;;;3.45;;
9409;SDS011;4744;52.576;13.568;2023-09-30T05:32:56;6.70;;;3.35;;
9409;SDS011;4744;52.576;13.568;2023-09-30T05:35:24;8.52;;;3.42;;
9409;SDS011;4744;52.576;13.568;2023-09-30T05:37:54;7.18;;;3.42;;
9409;SDS011;4744;52.576;13.568;2023-09-30T05:40:21;6.85;;;2.85;;
9409;SDS011;4744;52.576;13.568;2023-09-30T05:42:51;6.25;;;3.20;;
9409;SDS011;4744;52.576;13.568;2023-09-30T05:45:23;8.35;;;3.40;;
9409;SDS011;4744;52.576;13.568;2023-09-30T05:47:51;7.50;;;3.22;;
9409;SDS011;4744;52.576;13.568;2023-09-30T05:50:19;7.75;;;2.92;;
9409;SDS011;4744;52.576;13.568;2023-09-30T05:52:49;10.13;;;3.58;;
9409;SDS011;4744;52.576;13.568;2023-09-30T05:55:17;8.65;;;3.50;;
9409;SDS011;4744;52.576;13.568;2023-09-30T05:57:45;10.73;;;3.78;;
9409;SDS011;4744;52.576;13.568;2023-09-30T06:00:14;11.93;;;3.88;;
9409;SDS011;4744;52.576;13.568;2023-09-30T06:02:45;7.72;;;3.80;;
9409;SDS011;4744;52.576;13.568;2023-09-30T06:05:12;9.93;;;3.60;;
9409;SDS011;4744;52.576;13.568;2023-09-30T06:07:41;8.00;;;3.42;;
9409;SDS011;4744;52.576;13.568;2023-09-30T06:10:10;10.00;;;4.18;;
9409;SDS011;4744;52.576;13.568;2023-09-30T06:12:43;9.68;;;3.72;;
9409;SDS011;4744;52.576;13.568;2023-09-30T06:15:11;11.82;;;3.83;;
9409;SDS011;4744;52.576;13.568;2023-09-30T06:17:39;11.43;;;3.53;;
9409;SDS011;4744;52.576;13.568;2023-09-30T06:20:07;10.10;;;3.72;;
9409;SDS011;4744;52.576;13.568;2023-09-30T06:22:41;9.68;;;4.18;;
9409;SDS011;4744;52.576;13.568;2023-09-30T06:25:08;11.45;;;4.18;;
9409;SDS011;4744;52.576;13.568;2023-09-30T06:27:36;12.80;;;3.85;;
9409;SDS011;4744;52.576;13.568;2023-09-30T06:30:03;7.53;;;3.53;;
9409;SDS011;4744;52.576;13.568;2023-09-30T06:32:31;15.18;;;4.43;;
9409;SDS011;4744;52.576;13.568;2023-09-30T06:35:01;11.77;;;3.78;;
9409;SDS011;4744;52.576;13.568;2023-09-30T06:37:29;11.88;;;3.70;;
9409;SDS011;4744;52.576;13.568;2023-09-30T06:39:56;8.00;;;3.90;;
9409;SDS011;4744;52.576;13.568;2023-09-30T06:42:23;12.30;;;4.00;;
9409;SDS011;4744;52.576;13.568;2023-09-30T06:44:51;12.50;;;3.80;;
9409;SDS011;4744;52.576;13.568;2023-09-30T06:47:19;7.38;;;3.38;;
9409;SDS011;4744;52.576;13.568;2023-09-30T06:49:46;8.77;;;3.58;;
9409;SDS011;4744;52.576;13.568;2023-09-30T06:52:14;12.38;;;3.88;;
9409;SDS011;4744;52.576;13.568;2023-09-30T06:54:42;9.32;;;3.40;;
9409;SDS011;4744;52.576;13.568;2023-09-30T06:57:09;9.20;;;3.80;;
9409;SDS011;4744;52.576;13.568;2023-09-30T06:59:36;11.75;;;3.72;;
9409;SDS011;4744;52.576;13.568;2023-09-30T07:02:03;11.07;;;3.83;;
9409;SDS011;4744;52.576;13.568;2023-09-30T07:04:31;9.55;;;3.63;;
9409;SDS011;4744;52.576;13.568;2023-09-30T07:06:58;7.78;;;3.60;;
9409;SDS011;4744;52.576;13.568;2023-09-30T07:09:27;9.23;;;3.22;;
9409;SDS011;4744;52.576;13.568;2023-09-30T07:11:53;6.07;;;3.38;;
9409;SDS011;4744;52.576;13.568;2023-09-30T07:14:20;9.73;;;3.13;;
9409;SDS011;4744;52.576;13.568;2023-09-30T07:16:47;12.75;;;3.70;;
9409;SDS011;4744;52.576;13.568;2023-09-30T07:19:14;7.05;;;3.30;;
9409;SDS011;4744;52.576;13.568;2023-09-30T07:21:41;12.52;;;3.67;;
9409;SDS011;4744;52.576;13.568;2023-09-30T07:24:08;10.30;;;3.47;;
9409;SDS011;4744;52.576;13.568;2023-09-30T07:26:37;8.85;;;3.25;;
9409;SDS011;4744;52.576;13.568;2023-09-30T07:29:04;9.10;;;3.65;;
9409;SDS011;4744;52.576;13.568;2023-09-30T07:31:33;12.15;;;3.75;;
9409;SDS011;4744;52.576;13.568;2023-09-30T07:34:01;4.88;;;2.90;;
9409;SDS011;4744;52.576;13.568;2023-09-30T07:36:28;11.77;;;3.60;;
9409;SDS011;4744;52.576;13.568;2023-09-30T07:38:55;8.63;;;3.17;;
9409;SDS011;4744;52.576;13.568;2023-09-30T07:41:22;9.95;;;3.63;;
9409;SDS011;4744;52.576;13.568;2023-09-30T07:43:50;8.77;;;2.90;;
9409;SDS011;4744;52.576;13.568;2023-09-30T07:46:17;8.27;;;3.00;;
9409;SDS011;4744;52.576;13.568;2023-09-30T07:48:44;6.95;;;2.70;;
9409;SDS011;4744;52.576;13.568;2023-09-30T07:51:14;8.20;;;3.50;;
9409;SDS011;4744;52.576;13.568;2023-09-30T07:53:41;6.95;;;2.95;;
9409;SDS011;4744;52.576;13.568;2023-09-30T07:56:08;8.63;;;3.05;;
9409;SDS011;4744;52.576;13.568;2023-09-30T07:58:35;9.68;;;3.10;;
9409;SDS011;4744;52.576;13.568;2023-09-30T08:01:03;7.45;;;2.78;;
9409;SDS011;4744;52.576;13.568;2023-09-30T08:03:32;9.13;;;3.22;;
9409;SDS011;4744;52.576;13.568;2023-09-30T08:05:59;6.85;;;3.08;;
9409;SDS011;4744;52.576;13.568;2023-09-30T08:08:26;10.95;;;3.33;;
9409;SDS011;4744;52.576;13.568;2023-09-30T08:10:54;7.53;;;3.35;;
9409;SDS011;4744;52.576;13.568;2023-09-30T08:13:21;7.85;;;2.90;;
9409;SDS011;4744;52.576;13.568;2023-09-30T08:15:49;8.43;;;3.22;;
9409;SDS011;4744;52.576;13.568;2023-09-30T08:18:17;6.80;;;3.15;;
9409;SDS011;4744;52.576;13.568;2023-09-30T08:20:45;12.50;;;3.47;;
9409;SDS011;4744;52.576;13.568;2023-09-30T08:23:12;9.63;;;3.00;;
9409;SDS011;4744;52.576;13.568;2023-09-30T08:25:39;7.50;;;2.65;;
9409;SDS011;4744;52.576;13.568;2023-09-30T08:28:06;5.88;;;3.13;;
9409;SDS011;4744;52.576;13.568;2023-09-30T08:30:35;11.13;;;3.58;;
9409;SDS011;4744;52.576;13.568;2023-09-30T08:33:02;11.80;;;3.40;;
9409;SDS011;4744;52.576;13.568;2023-09-30T08:35:36;10.50;;;3.35;;
9409;SDS011;4744;52.576;13.568;2023-09-30T08:38:03;10.55;;;3.15;;
9409;SDS011;4744;52.576;13.568;2023-09-30T08:40:30;9.93;;;3.10;;
9409;SDS011;4744;52.576;13.568;2023-09-30T08:42:57;10.05;;;3.28;;
9409;SDS011;4744;52.576;13.568;2023-09-30T08:45:24;8.45;;;3.00;;
9409;SDS011;4744;52.576;13.568;2023-09-30T08:47:55;8.10;;;2.90;;
9409;SDS011;4744;52.576;13.568;2023-09-30T08:50:22;8.18;;;3.08;;
9409;SDS011;4744;52.576;13.568;2023-09-30T08:52:50;5.90;;;2.95;;
9409;SDS011;4744;52.576;13.568;2023-09-30T08:55:17;8.32;;;2.95;;
9409;SDS011;4744;52.576;13.568;2023-09-30T08:57:44;11.15;;;3.30;;
9409;SDS011;4744;52.576;13.568;2023-09-30T09:00:14;5.32;;;2.70;;
9409;SDS011;4744;52.576;13.568;2023-09-30T09:02:41;5.00;;;2.40;;
9409;SDS011;4744;52.576;13.568;2023-09-30T09:05:08;7.00;;;2.95;;
9409;SDS011;4744;52.576;13.568;2023-09-30T09:07:36;6.20;;;2.35;;
9409;SDS011;4744;52.576;13.568;2023-09-30T09:10:05;8.57;;;3.25;;
9409;SDS011;4744;52.576;13.568;2023-09-30T09:12:33;8.52;;;3.28;;
9409;SDS011;4744;52.576;13.568;2023-09-30T09:15:01;12.57;;;3.30;;
9409;SDS011;4744;52.576;13.568;2023-09-30T09:17:41;7.40;;;2.60;;
9409;SDS011;4744;52.576;13.568;2023-09-30T09:20:09;8.10;;;2.85;;
9409;SDS011;4744;52.576;13.568;2023-09-30T09:22:39;8.27;;;2.50;;
9409;SDS011;4744;52.576;13.568;2023-09-30T09:25:08;8.38;;;2.88;;
9409;SDS011;4744;52.576;13.568;2023-09-30T09:27:36;9.18;;;2.97;;
9409;SDS011;4744;52.576;13.568;2023-09-30T09:30:16;10.18;;;3.00;;
9409;SDS011;4744;52.576;13.568;2023-09-30T09:32:53;4.35;;;2.40;;
9409;SDS011;4744;52.576;13.568;2023-09-30T09:35:24;11.15;;;3.00;;
9409;SDS011;4744;52.576;13.568;2023-09-30T09:37:54;8.13;;;2.83;;
9409;SDS011;4744;52.576;13.568;2023-09-30T09:40:27;5.05;;;2.42;;
9409;SDS011;4744;52.576;13.568;2023-09-30T09:42:55;6.28;;;2.38;;
9409;SDS011;4744;52.576;13.568;2023-09-30T09:45:22;6.45;;;2.53;;
9409;SDS011;4744;52.576;13.568;2023-09-30T09:47:50;8.93;;;3.38;;
9409;SDS011;4744;52.576;13.568;2023-09-30T09:50:18;8.13;;;2.72;;
9409;SDS011;4744;52.576;13.568;2023-09-30T09:52:47;11.40;;;2.88;;
9409;SDS011;4744;52.576;13.568;2023-09-30T09:55:16;7.68;;;2.42;;
9409;SDS011;4744;52.576;13.568;2023-09-30T09:57:45;7.03;;;2.72;;
9409;SDS011;4744;52.576;13.568;2023-09-30T10:00:14;6.82;;;2.53;;
9409;SDS011;4744;52.576;13.568;2023-09-30T10:02:44;5.50;;;2.72;;
9409;SDS011;4744;52.576;13.568;2023-09-30T10:05:12;6.75;;;2.33;;
9409;SDS011;4744;52.576;13.568;2023-09-30T10:07:41;8.90;;;2.03;;
9409;SDS011;4744;52.576;13.568;2023-09-30T10:10:13;6.85;;;2.17;;
9409;SDS011;4744;52.576;13.568;2023-09-30T10:12:43;7.75;;;2.53;;
9409;SDS011;4744;52.576;13.568;2023-09-30T10:18:08;9.70;;;2.83;;
9409;SDS011;4744;52.576;13.568;2023-09-30T10:20:37;7.57;;;2.28;;
9409;SDS011;4744;52.576;13.568;2023-09-30T10:23:17;5.72;;;2.50;;
9409;SDS011;4744;52.576;13.568;2023-09-30T10:25:47;6.90;;;2.80;;
9409;SDS011;4744;52.576;13.568;2023-09-30T10:31:16;8.25;;;2.30;;
9409;SDS011;4744;52.576;13.568;2023-09-30T10:36:49;8.45;;;2.70;;
9409;SDS011;4744;52.576;13.568;2023-09-30T10:51:10;9.30;;;2.53;;
9409;SDS011;4744;52.576;13.568;2023-09-30T10:53:41;4.82;;;2.20;;
9409;SDS011;4744;52.576;13.568;2023-09-30T10:56:09;5.20;;;2.10;;
9409;SDS011;4744;52.576;13.568;2023-09-30T10:58:40;8.32;;;1.90;;
9409;SDS011;4744;52.576;13.568;2023-09-30T11:01:08;5.45;;;2.17;;
9409;SDS011;4744;52.576;13.568;2023-09-30T11:03:36;9.25;;;2.40;;
9409;SDS011;4744;52.576;13.568;2023-09-30T11:06:03;5.63;;;2.42;;
9409;SDS011;4744;52.576;13.568;2023-09-30T11:08:30;7.05;;;1.95;;
9409;SDS011;4744;52.576;13.568;2023-09-30T11:10:59;5.38;;;2.05;;
9409;SDS011;4744;52.576;13.568;2023-09-30T11:13:31;6.45;;;2.30;;
9409;SDS011;4744;52.576;13.568;2023-09-30T11:16:00;5.18;;;2.30;;
9409;SDS011;4744;52.576;13.568;2023-09-30T11:18:28;6.00;;;1.92;;
9409;SDS011;4744;52.576;13.568;2023-09-30T11:21:04;6.88;;;2.42;;
9409;SDS011;4744;52.576;13.568;2023-09-30T11:23:33;5.90;;;2.10;;
9409;SDS011;4744;52.576;13.568;2023-09-30T11:26:01;5.97;;;2.00;;
9409;SDS011;4744;52.576;13.568;2023-09-30T11:28:35;6.60;;;2.20;;
9409;SDS011;4744;52.576;13.568;2023-09-30T11:31:07;5.03;;;1.98;;
9409;SDS011;4744;52.576;13.568;2023-09-30T11:33:52;6.18;;;2.20;;
9409;SDS011;4744;52.576;13.568;2023-09-30T11:36:23;4.13;;;2.20;;
9409;SDS011;4744;52.576;13.568;2023-09-30T11:38:51;5.05;;;1.92;;
9409;SDS011;4744;52.576;13.568;2023-09-30T11:41:18;4.88;;;1.98;;
9409;SDS011;4744;52.576;13.568;2023-09-30T11:44:03;9.02;;;2.53;;
9409;SDS011;4744;52.576;13.568;2023-09-30T11:46:32;5.70;;;2.20;;
9409;SDS011;4744;52.576;13.568;2023-09-30T11:49:00;6.82;;;2.13;;
9409;SDS011;4744;52.576;13.568;2023-09-30T11:51:29;7.75;;;2.10;;
9409;SDS011;4744;52.576;13.568;2023-09-30T11:53:57;7.18;;;2.42;;
9409;SDS011;4744;52.576;13.568;2023-09-30T11:56:27;7.35;;;2.22;;
9409;SDS011;4744;52.576;13.568;2023-09-30T11:58:55;4.43;;;2.08;;
9409;SDS011;4744;52.576;13.568;2023-09-30T12:01:23;6.03;;;2.22;;
9409;SDS011;4744;52.576;13.568;2023-09-30T12:03:51;4.03;;;2.08;;
9409;SDS011;4744;52.576;13.568;2023-09-30T12:06:30;7.13;;;1.60;;
9409;SDS011;4744;52.576;13.568;2023-09-30T12:08:56;4.50;;;2.05;;
9409;SDS011;4744;52.576;13.568;2023-09-30T12:11:23;5.53;;;2.40;;
9409;SDS011;4744;52.576;13.568;2023-09-30T12:13:50;5.07;;;1.98;;
9409;SDS011;4744;52.576;13.568;2023-09-30T12:16:18;4.82;;;2.10;;
9409;SDS011;4744;52.576;13.568;2023-09-30T12:18:46;5.18;;;2.22;;
9409;SDS011;4744;52.576;13.568;2023-09-30T12:21:13;6.93;;;1.90;;
9409;SDS011;4744;52.576;13.568;2023-09-30T12:23:46;3.22;;;1.63;;
9409;SDS011;4744;52.576;13.568;2023-09-30T12:26:13;5.40;;;1.67;;
9409;SDS011;4744;52.576;13.568;2023-09-30T12:28:42;4.90;;;1.88;;
9409;SDS011;4744;52.576;13.568;2023-09-30T12:31:09;3.70;;;1.90;;
9409;SDS011;4744;52.576;13.568;2023-09-30T12:33:36;5.65;;;1.98;;
9409;SDS011;4744;52.576;13.568;2023-09-30T12:36:03;5.22;;;1.60;;
9409;SDS011;4744;52.576;13.568;2023-09-30T12:38:31;4.75;;;2.10;;
9409;SDS011;4744;52.576;13.568;2023-09-30T12:40:59;4.57;;;2.35;;
9409;SDS011;4744;52.576;13.568;2023-09-30T12:43:26;6.47;;;2.22;;
9409;SDS011;4744;52.576;13.568;2023-09-30T12:45:53;5.60;;;1.80;;
9409;SDS011;4744;52.576;13.568;2023-09-30T12:48:20;4.70;;;1.90;;
9409;SDS011;4744;52.576;13.568;2023-09-30T12:50:47;5.45;;;1.70;;
9409;SDS011;4744;52.576;13.568;2023-09-30T12:53:13;6.70;;;2.15;;
9409;SDS011;4744;52.576;13.568;2023-09-30T12:55:40;6.45;;;2.17;;
9409;SDS011;4744;52.576;13.568;2023-09-30T12:58:09;6.32;;;2.20;;
9409;SDS011;4744;52.576;13.568;2023-09-30T13:00:37;8.65;;;2.20;;
9409;SDS011;4744;52.576;13.568;2023-09-30T13:03:04;5.15;;;2.03;;
9409;SDS011;4744;52.576;13.568;2023-09-30T13:05:32;4.10;;;1.90;;
9409;SDS011;4744;52.576;13.568;2023-09-30T13:07:59;3.70;;;1.73;;
9409;SDS011;4744;52.576;13.568;2023-09-30T13:10:26;2.58;;;1.90;;
9409;SDS011;4744;52.576;13.568;2023-09-30T13:12:55;6.22;;;2.20;;
9409;SDS011;4744;52.576;13.568;2023-09-30T13:15:24;4.93;;;1.90;;
9409;SDS011;4744;52.576;13.568;2023-09-30T13:17:51;4.72;;;1.65;;
9409;SDS011;4744;52.576;13.568;2023-09-30T13:20:18;3.47;;;1.83;;
9409;SDS011;4744;52.576;13.568;2023-09-30T13:22:46;6.07;;;1.90;;
9409;SDS011;4744;52.576;13.568;2023-09-30T13:25:12;4.85;;;1.85;;
9409;SDS011;4744;52.576;13.568;2023-09-30T13:27:40;3.90;;;1.88;;
9409;SDS011;4744;52.576;13.568;2023-09-30T13:30:08;5.40;;;2.10;;
9409;SDS011;4744;52.576;13.568;2023-09-30T13:32:38;4.68;;;1.60;;
9409;SDS011;4744;52.576;13.568;2023-09-30T13:35:05;6.75;;;1.55;;
9409;SDS011;4744;52.576;13.568;2023-09-30T13:37:33;10.82;;;2.03;;
9409;SDS011;4744;52.576;13.568;2023-09-30T13:40:02;3.83;;;1.80;;
9409;SDS011;4744;52.576;13.568;2023-09-30T13:42:33;3.85;;;1.50;;
9409;SDS011;4744;52.576;13.568;2023-09-30T13:45:00;4.45;;;1.70;;
9409;SDS011;4744;52.576;13.568;2023-09-30T13:47:27;5.00;;;1.95;;
9409;SDS011;4744;52.576;13.568;2023-09-30T13:49:55;4.53;;;1.70;;
9409;SDS011;4744;52.576;13.568;2023-09-30T13:52:22;3.30;;;1.50;;
9409;SDS011;4744;52.576;13.568;2023-09-30T13:54:49;2.40;;;1.30;;
9409;SDS011;4744;52.576;13.568;2023-09-30T13:57:16;4.70;;;1.52;;
9409;SDS011;4744;52.576;13.568;2023-09-30T13:59:46;4.57;;;1.58;;
9409;SDS011;4744;52.576;13.568;2023-09-30T14:02:13;3.22;;;1.70;;
9409;SDS011;4744;52.576;13.568;2023-09-30T14:04:40;3.50;;;1.60;;
9409;SDS011;4744;52.576;13.568;2023-09-30T14:07:09;2.35;;;1.40;;
9409;SDS011;4744;52.576;13.568;2023-09-30T14:09:35;5.60;;;1.65;;
9409;SDS011;4744;52.576;13.568;2023-09-30T14:12:03;5.40;;;1.92;;
9409;SDS011;4744;52.576;13.568;2023-09-30T14:14:30;3.83;;;1.58;;
9409;SDS011;4744;52.576;13.568;2023-09-30T14:16:59;4.22;;;1.45;;
9409;SDS011;4744;52.576;13.568;2023-09-30T14:19:32;2.40;;;1.30;;
9409;SDS011;4744;52.576;13.568;2023-09-30T14:21:59;3.40;;;1.55;;
9409;SDS011;4744;52.576;13.568;2023-09-30T14:24:27;2.70;;;1.40;;
9409;SDS011;4744;52.576;13.568;2023-09-30T14:26:54;3.65;;;1.75;;
9409;SDS011;4744;52.576;13.568;2023-09-30T14:29:21;4.22;;;1.80;;
9409;SDS011;4744;52.576;13.568;2023-09-30T14:31:49;3.17;;;1.58;;
9409;SDS011;4744;52.576;13.568;2023-09-30T14:34:16;3.13;;;1.48;;
9409;SDS011;4744;52.576;13.568;2023-09-30T14:36:46;5.05;;;1.75;;
9409;SDS011;4744;52.576;13.568;2023-09-30T14:39:13;3.50;;;1.33;;
9409;SDS011;4744;52.576;13.568;2023-09-30T14:41:43;3.58;;;1.65;;
9409;SDS011;4744;52.576;13.568;2023-09-30T14:44:10;3.65;;;1.70;;
9409;SDS011;4744;52.576;13.568;2023-09-30T14:46:37;2.92;;;1.55;;
9409;SDS011;4744;52.576;13.568;2023-09-30T14:49:04;3.65;;;1.70;;
9409;SDS011;4744;52.576;13.568;2023-09-30T14:51:32;4.25;;;1.98;;
9409;SDS011;4744;52.576;13.568;2023-09-30T14:53:59;3.90;;;1.63;;
9409;SDS011;4744;52.576;13.568;2023-09-30T14:56:26;5.13;;;1.95;;
9409;SDS011;4744;52.576;13.568;2023-09-30T14:58:55;4.13;;;1.77;;
9409;SDS011;4744;52.576;13.568;2023-09-30T15:01:21;3.13;;;1.50;;
9409;SDS011;4744;52.576;13.568;2023-09-30T15:03:48;3.33;;;1.55;;
9409;SDS011;4744;52.576;13.568;2023-09-30T15:06:16;2.92;;;1.60;;
9409;SDS011;4744;52.576;13.568;2023-09-30T15:08:43;3.38;;;1.42;;
9409;SDS011;4744;52.576;13.568;2023-09-30T15:11:14;2.55;;;1.50;;
9409;SDS011;4744;52.576;13.568;2023-09-30T15:13:41;4.25;;;1.42;;
9409;SDS011;4744;52.576;13.568;2023-09-30T15:16:15;5.13;;;1.83;;
9409;SDS011;4744;52.576;13.568;2023-09-30T15:18:44;4.63;;;1.52;;
9409;SDS011;4744;52.576;13.568;2023-09-30T15:21:12;3.17;;;1.45;;
9409;SDS011;4744;52.576;13.568;2023-09-30T15:23:39;2.88;;;1.13;;
9409;SDS011;4744;52.576;13.568;2023-09-30T15:26:06;3.30;;;1.40;;
9409;SDS011;4744;52.576;13.568;2023-09-30T15:28:33;3.65;;;1.63;;